createdAt,value
2022-08-14T00:01:10.310Z,98139.50
2022-08-14T00:03:40.424Z,98147.22
2022-08-14T00:06:13.849Z,98110.00
2022-08-14T00:08:52.600Z,98125.03
2022-08-14T00:11:19.760Z,98106.50
2022-08-14T00:13:51.734Z,98128.56
2022-08-14T00:16:41.198Z,98122.38
2022-08-14T00:19:19.139Z,98110.72
2022-08-14T00:21:47.865Z,98113.53
2022-08-14T00:24:23.312Z,98110.88
2022-08-14T00:26:56.440Z,98104.03
2022-08-14T00:29:25.280Z,98094.00
2022-08-14T00:31:55.274Z,98109.22
2022-08-14T00:34:36.804Z,98109.22
2022-08-14T00:37:10.288Z,98102.88
2022-08-14T00:39:37.284Z,98105.56
2022-08-14T00:42:05.279Z,98099.41
2022-08-14T00:44:33.352Z,98097.56
2022-08-14T00:47:06.161Z,98094.06
2022-08-14T00:49:42.628Z,98088.72
2022-08-14T00:52:14.129Z,98090.53
2022-08-14T00:54:45.471Z,98085.22
2022-08-14T00:57:12.479Z,98090.53
2022-08-14T00:59:39.610Z,98089.72
2022-08-14T01:02:09.169Z,98085.22
2022-08-14T01:04:37.690Z,98087.88
2022-08-14T01:07:22.647Z,98079.06
2022-08-14T01:10:01.757Z,98086.06
2022-08-14T01:12:30.059Z,98076.41
2022-08-14T01:15:02.393Z,98083.53
2022-08-14T01:17:50.790Z,98084.38
2022-08-14T01:20:41.027Z,98086.19
2022-08-14T01:23:16.731Z,98080.88
2022-08-14T01:25:51.558Z,98078.19
2022-08-14T01:28:34.202Z,98080.88
2022-08-14T01:33:26.185Z,98080.03
2022-08-14T01:36:05.464Z,98076.56
2022-08-14T01:38:48.968Z,98075.69
2022-08-14T01:41:19.784Z,98072.22
2022-08-14T01:44:01.480Z,98072.22
2022-08-14T01:46:37.201Z,98074.03
2022-08-14T01:49:08.577Z,98074.88
2022-08-14T01:51:37.168Z,98074.03
2022-08-14T01:54:09.967Z,98084.69
2022-08-14T01:56:42.789Z,98072.22
2022-08-14T01:59:18.498Z,98063.34
2022-08-14T02:01:58.677Z,98068.69
2022-08-14T02:04:56.089Z,98065.19
2022-08-14T02:07:27.208Z,98039.47
2022-08-14T02:10:06.732Z,98062.53
2022-08-14T02:12:33.757Z,98058.19
2022-08-14T02:15:01.859Z,98053.84
2022-08-14T02:19:55.893Z,98050.19
2022-08-14T02:22:29.194Z,98058.19
2022-08-14T02:25:00.139Z,98056.34
2022-08-14T02:28:23.040Z,98055.53
2022-08-14T02:30:15.932Z,98050.19
2022-08-14T02:32:43.266Z,98034.31
2022-08-14T02:35:18.904Z,98047.53
2022-08-14T02:37:49.286Z,98046.72
2022-08-14T02:40:19.089Z,98039.88
2022-08-14T02:42:54.140Z,98057.22
2022-08-14T02:45:22.234Z,98050.19
2022-08-14T02:47:49.595Z,98054.69
2022-08-14T02:50:26.990Z,98050.19
2022-08-14T02:52:57.497Z,98032.47
2022-08-14T02:55:31.006Z,98046.72
2022-08-14T02:57:58.035Z,98052.88
2022-08-14T03:00:26.586Z,98049.50
2022-08-14T03:02:59.038Z,98048.53
2022-08-14T03:05:30.387Z,98046.72
2022-08-14T03:08:15.140Z,98051.19
2022-08-14T03:10:48.760Z,98053.84
2022-08-14T03:13:20.898Z,98053.03
2022-08-14T03:15:55.096Z,98053.84
2022-08-14T03:18:31.583Z,98045.84
2022-08-14T03:21:05.945Z,98040.53
2022-08-14T03:23:38.081Z,98037.19
2022-08-14T03:26:13.311Z,98041.38
2022-08-14T03:28:51.290Z,98045.03
2022-08-14T03:31:26.154Z,98040.53
2022-08-14T03:33:55.957Z,98043.34
2022-08-14T03:37:37.467Z,98022.13
2022-08-14T03:39:21.313Z,98043.34
2022-08-14T03:41:54.398Z,98045.03
2022-08-14T03:45:25.584Z,98038.84
2022-08-14T03:47:09.296Z,98044.34
2022-08-14T03:49:42.268Z,98051.34
2022-08-14T03:52:38.555Z,98049.50
2022-08-14T03:54:57.259Z,98048.69
2022-08-14T03:57:24.440Z,98046.03
2022-08-14T03:59:51.418Z,98060.34
2022-08-14T04:02:33.377Z,98051.34
2022-08-14T04:05:11.624Z,98044.81
2022-08-14T04:07:41.509Z,98052.16
2022-08-14T04:10:32.250Z,98045.19
2022-08-14T04:13:04.386Z,98046.84
2022-08-14T04:15:52.740Z,98044.19
2022-08-14T04:18:21.436Z,98040.69
2022-08-14T04:20:54.363Z,98046.03
2022-08-14T04:23:23.690Z,98033.69
2022-08-14T04:25:55.905Z,98039.88
2022-08-14T04:29:06.742Z,98030.50
2022-08-14T04:31:09.569Z,98037.19
2022-08-14T04:33:37.674Z,98043.34
2022-08-14T04:36:04.937Z,98035.34
2022-08-14T04:38:50.040Z,98038.84
2022-08-14T04:41:35.336Z,98033.50
2022-08-14T04:44:05.041Z,98022.97
2022-08-14T04:46:56.404Z,98033.69
2022-08-14T04:49:22.543Z,98029.19
2022-08-14T04:54:17.243Z,98027.53
2022-08-14T04:56:44.001Z,98030.19
2022-08-14T04:59:12.061Z,98016.97
2022-08-14T05:01:45.237Z,98029.19
2022-08-14T05:04:16.389Z,98025.69
2022-08-14T05:06:47.051Z,98018.84
2022-08-14T05:09:15.965Z,98013.31
2022-08-14T05:11:44.524Z,98024.69
2022-08-14T05:14:34.104Z,98018.53
2022-08-14T05:17:02.088Z,98021.22
2022-08-14T05:19:32.739Z,98013.22
2022-08-14T05:22:17.330Z,98012.34
2022-08-14T05:24:50.511Z,98004.81
2022-08-14T05:27:22.422Z,98007.34
2022-08-14T05:29:53.018Z,98013.34
2022-08-14T05:32:19.670Z,98017.53
2022-08-14T05:34:47.236Z,98019.19
2022-08-14T05:37:15.343Z,98017.53
2022-08-14T05:39:42.813Z,98008.53
2022-08-14T05:42:10.129Z,98010.22
2022-08-14T05:47:15.375Z,98006.72
2022-08-14T05:49:42.033Z,98009.41
2022-08-14T05:52:09.860Z,98009.22
2022-08-14T05:54:36.844Z,98003.91
2022-08-14T05:57:04.571Z,98010.22
2022-08-14T05:59:36.758Z,98016.53
2022-08-14T06:02:10.563Z,98010.03
2022-08-14T06:04:39.189Z,98014.56
2022-08-14T06:07:06.631Z,98017.22
2022-08-14T06:09:35.691Z,98020.72
2022-08-14T06:12:08.600Z,98013.56
2022-08-14T06:14:36.581Z,98021.56
2022-08-14T06:17:04.574Z,98014.84
2022-08-14T06:19:31.454Z,98025.06
2022-08-14T06:21:59.542Z,98021.56
2022-08-14T06:24:27.255Z,98032.06
2022-08-14T06:27:04.535Z,98030.38
2022-08-14T06:29:35.246Z,98031.25
2022-08-14T06:32:38.573Z,98028.56
2022-08-14T06:35:03.922Z,98030.22
2022-08-14T06:37:41.515Z,98015.09
2022-08-14T06:40:25.650Z,98016.88
2022-08-14T06:43:00.219Z,98015.91
2022-08-14T06:45:27.957Z,98021.22
2022-08-14T06:47:55.528Z,98010.56
2022-08-14T06:50:28.142Z,98013.22
2022-08-14T06:52:55.968Z,98012.25
2022-08-14T06:55:27.790Z,98011.44
2022-08-14T06:57:55.257Z,98009.59
2022-08-14T07:00:26.904Z,98012.09
2022-08-14T07:03:13.690Z,98017.41
2022-08-14T07:05:57.832Z,98008.59
2022-08-14T07:08:31.509Z,98006.75
2022-08-14T07:11:01.545Z,98004.41
2022-08-14T07:13:28.684Z,98008.44
2022-08-14T07:16:00.583Z,98006.75
2022-08-14T07:18:34.348Z,98004.94
2022-08-14T07:21:02.489Z,98011.94
2022-08-14T07:23:31.068Z,98012.94
2022-08-14T07:25:59.138Z,98008.44
2022-08-14T07:28:33.049Z,98011.09
2022-08-14T07:31:04.665Z,98014.63
2022-08-14T07:33:36.194Z,98010.28
2022-08-14T07:36:09.036Z,98015.44
2022-08-14T07:38:53.401Z,97997.72
2022-08-14T07:41:20.044Z,98008.44
2022-08-14T07:43:47.601Z,98014.75
2022-08-14T07:46:28.361Z,98016.44
2022-08-14T07:48:56.887Z,98013.75
2022-08-14T07:51:23.840Z,98009.28
2022-08-14T07:53:57.035Z,98020.94
2022-08-14T07:56:47.935Z,98012.09
2022-08-14T07:59:11.627Z,98014.63
2022-08-14T08:01:47.953Z,98018.28
2022-08-14T08:04:27.264Z,98019.94
2022-08-14T08:06:55.644Z,98022.63
2022-08-14T08:09:31.795Z,98019.94
2022-08-14T08:12:01.709Z,98022.63
2022-08-14T08:14:55.521Z,98015.44
2022-08-14T08:17:23.311Z,98016.44
2022-08-14T08:22:16.505Z,98010.28
2022-08-14T08:24:43.724Z,98012.78
2022-08-14T08:27:17.753Z,98008.25
2022-08-14T08:29:51.137Z,98014.44
2022-08-14T08:32:18.443Z,98006.75
2022-08-14T08:34:46.718Z,98016.13
2022-08-14T08:37:14.999Z,98007.28
2022-08-14T08:40:02.715Z,98013.47
2022-08-14T08:42:38.702Z,98010.09
2022-08-14T08:45:12.296Z,98009.81
2022-08-14T08:47:43.075Z,98015.13
2022-08-14T08:53:10.289Z,98006.28
2022-08-14T08:55:44.298Z,98009.81
2022-08-14T08:58:19.984Z,98003.44
2022-08-14T09:00:57.104Z,98003.44
2022-08-14T09:03:27.992Z,97999.13
2022-08-14T09:05:58.965Z,97998.97
2022-08-14T09:08:31.947Z,98005.13
2022-08-14T09:11:19.091Z,98004.31
2022-08-14T09:13:49.610Z,98002.47
2022-08-14T09:16:23.431Z,98002.47
2022-08-14T09:18:50.707Z,98002.47
2022-08-14T09:21:21.339Z,98003.31
2022-08-14T09:24:29.537Z,97956.50
2022-08-14T09:26:42.069Z,98004.13
2022-08-14T09:29:11.244Z,97996.97
2022-08-14T09:31:52.980Z,97994.16
2022-08-14T09:34:38.895Z,97995.97
2022-08-14T09:37:31.792Z,97997.66
2022-08-14T09:40:38.901Z,97995.97
2022-08-14T09:43:43.933Z,97995.97
2022-08-14T09:46:11.752Z,97998.63
2022-08-14T09:48:43.829Z,97995.97
2022-08-14T09:54:19.065Z,97999.31
2022-08-14T09:56:57.399Z,97996.66
2022-08-14T09:59:27.939Z,97995.66
2022-08-14T10:01:57.082Z,98002.81
2022-08-14T10:04:36.552Z,97999.16
2022-08-14T10:07:08.590Z,98000.88
2022-08-14T10:09:59.928Z,97986.47
2022-08-14T10:12:51.711Z,98001.69
2022-08-14T10:15:25.126Z,97987.16
2022-08-14T10:18:05.275Z,97991.88
2022-08-14T10:20:41.924Z,97992.69
2022-08-14T10:23:18.287Z,97996.22
2022-08-14T10:25:53.139Z,97978.28
2022-08-14T10:28:39.220Z,97984.16
2022-08-14T10:31:43.131Z,97980.50
2022-08-14T10:34:14.171Z,97982.72
2022-08-14T10:39:06.740Z,97990.72
2022-08-14T10:41:48.517Z,97992.41
2022-08-14T10:44:21.302Z,97998.72
2022-08-14T10:47:36.810Z,98000.41
2022-08-14T10:49:50.151Z,97998.56
2022-08-14T10:52:24.271Z,97992.41
2022-08-14T10:54:56.346Z,97990.56
2022-08-14T10:57:27.780Z,97992.22
2022-08-14T10:59:56.241Z,97990.56
2022-08-14T11:02:44.557Z,97993.06
2022-08-14T11:05:18.755Z,97994.91
2022-08-14T11:07:56.874Z,97979.72
2022-08-14T11:10:50.328Z,97977.06
2022-08-14T11:13:24.193Z,97977.91
2022-08-14T11:15:51.109Z,97918.03
2022-08-14T11:18:20.575Z,97989.41
2022-08-14T11:20:59.765Z,97995.59
2022-08-14T11:23:38.691Z,97996.41
2022-08-14T11:26:08.789Z,97989.25
2022-08-14T11:28:47.461Z,97986.59
2022-08-14T11:31:23.443Z,97988.41
2022-08-14T11:33:57.894Z,97982.09
2022-08-14T11:37:02.157Z,97983.94
2022-08-14T11:39:34.890Z,97987.41
2022-08-14T11:42:56.215Z,97985.56
2022-08-14T11:45:04.319Z,97974.03
2022-08-14T11:48:10.729Z,97992.59
2022-08-14T11:50:37.100Z,97990.91
2022-08-14T11:53:07.137Z,97990.78
2022-08-14T11:55:38.070Z,97996.09
2022-08-14T11:58:10.500Z,97993.44
2022-08-14T12:00:55.029Z,97997.91
2022-08-14T12:03:27.095Z,97987.13
2022-08-14T12:06:28.644Z,97988.09
2022-08-14T12:09:00.277Z,97983.59
2022-08-14T12:11:38.337Z,97984.44
2022-08-14T12:14:13.607Z,97978.25
2022-08-14T12:17:11.836Z,97978.25
2022-08-14T12:19:46.217Z,97979.94
2022-08-14T12:22:29.842Z,97963.88
2022-08-14T12:24:57.612Z,97988.75
2022-08-14T12:27:52.029Z,97983.41
2022-08-14T12:30:29.424Z,97977.25
2022-08-14T12:33:08.381Z,97975.41
2022-08-14T12:35:40.259Z,97967.41
2022-08-14T12:38:07.344Z,97972.75
2022-08-14T12:40:34.000Z,97976.09
2022-08-14T12:43:03.248Z,97963.75
2022-08-14T12:45:33.617Z,97964.63
2022-08-14T12:48:21.617Z,97967.28
2022-08-14T12:50:52.505Z,97968.09
2022-08-14T12:53:20.791Z,97947.59
2022-08-14T12:56:22.755Z,97963.59
2022-08-14T12:58:52.829Z,97952.94
2022-08-14T13:01:28.773Z,97934.25
2022-08-14T13:04:08.247Z,97946.78
2022-08-14T13:06:38.599Z,97950.25
2022-08-14T13:09:07.881Z,97939.59
2022-08-14T13:11:58.857Z,97933.25
2022-08-14T13:14:38.368Z,97923.59
2022-08-14T13:17:05.508Z,97922.59
2022-08-14T13:19:37.588Z,97926.94
2022-08-14T13:22:09.758Z,97917.13
2022-08-14T13:24:39.815Z,97908.28
2022-08-14T13:27:09.885Z,97903.78
2022-08-14T13:29:43.868Z,97911.78
2022-08-14T13:32:15.196Z,97914.47
2022-08-14T13:34:45.478Z,97904.59
2022-08-14T13:37:15.487Z,97905.44
2022-08-14T13:39:56.686Z,97905.44
2022-08-14T13:42:30.349Z,97904.59
2022-08-14T13:47:29.593Z,97902.75
2022-08-14T13:50:03.013Z,97899.28
2022-08-14T13:52:52.353Z,97896.44
2022-08-14T13:55:30.886Z,97892.09
2022-08-14T13:58:03.490Z,97886.75
2022-08-14T14:00:53.437Z,97883.28
2022-08-14T14:03:25.449Z,97880.44
2022-08-14T14:05:57.905Z,97883.94
2022-08-14T14:08:46.119Z,97853.09
2022-08-14T14:11:16.365Z,97870.63
2022-08-14T14:13:48.529Z,97874.94
2022-08-14T14:16:26.637Z,97876.94
2022-08-14T14:19:08.729Z,97874.94
2022-08-14T14:21:38.074Z,97868.78
2022-08-14T14:24:07.933Z,97864.25
2022-08-14T14:26:50.100Z,97853.59
2022-08-14T14:29:24.075Z,97870.44
2022-08-14T14:34:20.173Z,97865.94
2022-08-14T14:36:56.244Z,97865.94
2022-08-14T14:39:28.851Z,97871.25
2022-08-14T14:42:04.193Z,97868.59
2022-08-14T14:44:40.182Z,97873.94
2022-08-14T14:47:11.549Z,97872.94
2022-08-14T14:49:41.833Z,97871.44
2022-08-14T14:52:27.488Z,97876.59
2022-08-14T14:54:57.568Z,97876.59
2022-08-14T14:57:35.667Z,97872.13
2022-08-14T15:00:19.265Z,97850.25
2022-08-14T15:02:52.337Z,97862.28
2022-08-14T15:05:20.534Z,97854.28
2022-08-14T15:07:49.927Z,97862.28
2022-08-14T15:10:27.880Z,97852.47
2022-08-14T15:13:00.274Z,97853.28
2022-08-14T15:15:30.164Z,97848.94
2022-08-14T15:17:59.393Z,97868.47
2022-08-14T15:20:29.729Z,97858.94
2022-08-14T15:22:57.828Z,97864.94
2022-08-14T15:25:24.697Z,97869.44
2022-08-14T15:27:54.627Z,97873.78
2022-08-14T15:30:23.667Z,97878.09
2022-08-14T15:32:51.748Z,97871.78
2022-08-14T15:35:22.250Z,97872.44
2022-08-14T15:37:55.826Z,97886.09
2022-08-14T15:40:23.391Z,97877.59
2022-08-14T15:42:50.043Z,97876.47
2022-08-14T15:45:17.333Z,97873.78
2022-08-14T15:47:44.268Z,97879.94
2022-08-14T15:50:13.066Z,97887.13
2022-08-14T15:52:41.467Z,97885.28
2022-08-14T15:55:14.804Z,97886.09
2022-08-14T15:58:02.359Z,97878.09
2022-08-14T16:03:00.398Z,97862.63
2022-08-14T16:05:27.228Z,97875.44
2022-08-14T16:08:26.589Z,97866.63
2022-08-14T16:10:56.482Z,97865.63
2022-08-14T16:13:23.049Z,97853.28
2022-08-14T16:16:47.138Z,97848.75
2022-08-14T16:19:07.301Z,97843.28
2022-08-14T16:21:39.390Z,97842.59
2022-08-14T16:24:06.496Z,97841.63
2022-08-14T16:26:34.255Z,97847.78
2022-08-14T16:29:07.531Z,97847.94
2022-08-14T16:31:38.031Z,97855.94
2022-08-14T16:34:45.537Z,97839.44
2022-08-14T16:36:53.978Z,97846.94
2022-08-14T16:39:22.768Z,97848.75
2022-08-14T16:41:52.343Z,97858.59
2022-08-14T16:44:33.823Z,97860.28
2022-08-14T16:47:02.303Z,97854.09
2022-08-14T16:50:03.162Z,97851.28
2022-08-14T16:52:26.059Z,97849.63
2022-08-14T16:55:09.563Z,97841.63
2022-08-14T16:57:54.939Z,97837.09
2022-08-14T17:00:28.750Z,97825.59
2022-08-14T17:03:12.884Z,97813.59
2022-08-14T17:05:43.320Z,97834.44
2022-08-14T17:08:41.532Z,97838.09
2022-08-14T17:11:09.952Z,97825.28
2022-08-14T17:13:58.719Z,97827.41
2022-08-14T17:16:26.038Z,97818.59
2022-08-14T17:19:03.662Z,97832.63
2022-08-14T17:21:38.167Z,97836.28
2022-08-14T17:24:51.508Z,97828.28
2022-08-14T17:26:59.877Z,97828.28
2022-08-14T17:29:33.597Z,97828.28
2022-08-14T17:32:21.947Z,97831.75
2022-08-14T17:34:54.334Z,97843.44
2022-08-14T17:37:26.653Z,97840.75
2022-08-14T17:40:26.373Z,97835.44
2022-08-14T17:43:02.221Z,97828.28
2022-08-14T17:45:41.021Z,97831.75
2022-08-14T17:49:15.445Z,97831.75
2022-08-14T17:51:14.463Z,97828.28
2022-08-14T17:53:53.473Z,97825.59
2022-08-14T17:56:28.960Z,97819.59
2022-08-14T18:01:29.640Z,97832.75
2022-08-14T18:03:58.386Z,97834.59
2022-08-14T18:06:39.753Z,97836.44
2022-08-14T18:09:25.313Z,97837.94
2022-08-14T18:12:01.413Z,97801.72
2022-08-14T18:14:33.185Z,97792.34
2022-08-14T18:17:16.061Z,97841.63
2022-08-14T18:19:44.645Z,97829.09
2022-08-14T18:22:30.929Z,97853.09
2022-08-14T18:24:58.894Z,97856.75
2022-08-14T18:27:36.088Z,97870.78
2022-08-14T18:30:33.325Z,97861.09
2022-08-14T18:32:54.714Z,97854.78
2022-08-14T18:35:46.345Z,97868.28
2022-08-14T18:38:26.488Z,97870.94
2022-08-14T18:41:36.580Z,97857.28
2022-08-14T18:44:11.031Z,97871.78
2022-08-14T18:47:14.685Z,97874.44
2022-08-14T18:50:00.972Z,97881.63
2022-08-14T18:52:33.936Z,97878.97
2022-08-14T18:55:20.940Z,97874.63
2022-08-14T18:57:58.223Z,97871.94
2022-08-14T19:00:33.540Z,97874.63
2022-08-14T19:03:05.240Z,97868.47
2022-08-14T19:05:47.644Z,97869.28
2022-08-14T19:08:18.212Z,97862.28
2022-08-14T19:10:48.693Z,97863.13
2022-08-14T19:13:27.788Z,97863.94
2022-08-14T19:16:22.629Z,97865.78
2022-08-14T19:19:00.285Z,97850.75
2022-08-14T19:21:40.889Z,97868.47
2022-08-14T19:24:27.375Z,97866.78
2022-08-14T19:27:23.206Z,97873.78
2022-08-14T19:30:20.528Z,97883.59
2022-08-14T19:32:56.007Z,97875.59
2022-08-14T19:35:48.659Z,97875.59
2022-08-14T19:38:54.168Z,97876.47
2022-08-14T19:41:40.686Z,97880.94
2022-08-14T19:44:19.988Z,97863.28
2022-08-14T19:47:00.110Z,97860.59
2022-08-14T19:50:24.486Z,97868.59
2022-08-14T19:52:37.392Z,97864.94
2022-08-14T19:55:19.862Z,97810.03
2022-08-14T19:57:51.988Z,97851.59
2022-08-14T20:03:10.185Z,97843.59
2022-08-14T20:05:45.358Z,97844.59
2022-08-14T20:10:59.683Z,97824.09
2022-08-14T20:11:21.087Z,97837.44
2022-08-14T20:13:46.685Z,97825.78
2022-08-14T20:16:21.064Z,97832.09
2022-08-14T20:19:08.335Z,97839.13
2022-08-14T20:21:37.096Z,97838.25
2022-08-14T20:24:33.112Z,97841.78
2022-08-14T20:27:34.139Z,97835.59
2022-08-14T20:30:28.832Z,97825.91
2022-08-14T20:32:55.121Z,97836.59
2022-08-14T20:35:35.414Z,97833.78
2022-08-14T20:38:29.742Z,97837.44
2022-08-14T20:41:00.655Z,97825.91
2022-08-14T20:43:53.202Z,97826.78
2022-08-14T20:46:29.669Z,97818.91
2022-08-14T20:48:56.679Z,97828.59
2022-08-14T20:51:38.813Z,97822.44
2022-08-14T20:54:14.354Z,97822.44
2022-08-14T20:56:44.529Z,97824.25
2022-08-14T20:59:19.175Z,97817.91
2022-08-14T21:01:55.262Z,97826.91
2022-08-14T21:04:29.623Z,97831.25
2022-08-14T21:07:25.236Z,97825.91
2022-08-14T21:10:06.645Z,97828.59
2022-08-14T21:13:13.948Z,97832.25
2022-08-14T21:15:27.316Z,97840.13
2022-08-14T21:17:59.012Z,97844.59
2022-08-14T21:20:28.973Z,97838.44
2022-08-14T21:23:00.419Z,97834.28
2022-08-14T21:25:31.361Z,97841.09
2022-08-14T21:28:02.533Z,97833.09
2022-08-14T21:30:47.106Z,97832.25
2022-08-14T21:33:21.686Z,97834.91
2022-08-14T21:35:55.822Z,97834.91
2022-08-14T21:38:31.157Z,97828.59
2022-08-14T21:41:41.364Z,97810.91
2022-08-14T21:44:18.121Z,97809.09
2022-08-14T21:46:58.347Z,97824.25
2022-08-14T21:49:33.877Z,97805.56
2022-08-14T21:52:49.256Z,97812.59
2022-08-14T21:55:09.659Z,97794.25
2022-08-14T21:58:04.157Z,97817.09
2022-08-14T22:00:36.597Z,97810.91
2022-08-14T22:03:10.150Z,97810.91
2022-08-14T22:05:38.943Z,97825.09
2022-08-14T22:08:07.353Z,97821.59
2022-08-14T22:10:35.246Z,97810.91
2022-08-14T22:13:02.237Z,97810.09
2022-08-14T22:15:32.322Z,97805.56
2022-08-14T22:18:00.078Z,97808.25
2022-08-14T22:20:29.169Z,97810.09
2022-08-14T22:23:00.772Z,97810.91
2022-08-14T22:25:33.535Z,97810.91
2022-08-14T22:28:05.861Z,97811.94
2022-08-14T22:30:33.815Z,97809.09
2022-08-14T22:33:01.312Z,97810.09
2022-08-14T22:35:29.486Z,97810.91
2022-08-14T22:38:35.036Z,97808.41
2022-08-14T22:41:12.468Z,97814.59
2022-08-14T22:43:35.133Z,97809.41
2022-08-14T22:46:14.304Z,97805.94
2022-08-14T22:48:43.420Z,97795.56
2022-08-14T22:51:18.421Z,97813.09
2022-08-14T22:53:48.474Z,97805.09
2022-08-14T22:56:20.488Z,97812.25
2022-08-14T22:58:53.785Z,97807.78
2022-08-14T23:01:55.198Z,97793.59
2022-08-14T23:04:35.648Z,97799.09
2022-08-14T23:07:21.884Z,97815.09
2022-08-14T23:09:56.722Z,97816.91
2022-08-14T23:12:31.813Z,97816.91
2022-08-14T23:15:02.089Z,97815.25
2022-08-14T23:17:39.046Z,97810.75
2022-08-14T23:20:18.900Z,97796.59
2022-08-14T23:22:48.916Z,97796.59
2022-08-14T23:25:20.019Z,97797.41
2022-08-14T23:30:35.141Z,97799.41
2022-08-14T23:33:02.661Z,97802.06
2022-08-14T23:35:33.293Z,97804.91
2022-08-14T23:38:05.567Z,97796.91
2022-08-14T23:40:34.387Z,97788.91
2022-08-14T23:43:11.223Z,97783.75
2022-08-14T23:45:41.265Z,97787.22
2022-08-14T23:48:09.916Z,97789.91
2022-08-14T23:50:41.439Z,97781.91
2022-08-14T23:53:14.988Z,97784.75
2022-08-14T23:55:57.407Z,97784.75
2022-08-14T23:58:29.338Z,97778.59
